sensor_id;sensor_type;location;lat;lon;timestamp;pressure;altitude;pressure_sealevel;temperature;humidity
2000;BME280;1001;48.87406500;9.59633600;2022-10-16T00:00:19;95037.59;;;15.41;100.00
2000;BME280;1001;48.87406500;9.59633600;2022-10-16T00:02:47;95030.28;;;15.48;100.00
2000;BME280;1001;48.87406500;9.59633600;2022-10-16T00:05:14;95036.06;;;15.50;100.00
2000;BME280;1001;48.87406500;9.59633600;2022-10-16T00:07:40;95041.34;;;15.50;100.00
2000;BME280;1001;48.87406500;9.59633600;2022-10-16T00:10:07;95047.97;;;15.47;100.00
2000;BME280;1001;48.87406500;9.59633600;2022-10-16T00:12:34;95053.22;;;15.52;100.00
2000;BME280;1001;48.87406500;9.59633600;2022-10-16T00:15:01;95060.09;;;15.53;100.00
2000;BME280;1001;48.87406500;9.59633600;2022-10-16T00:17:27;95061.38;;;15.51;100.00
2000;BME280;1001;48.87406500;9.59633600;2022-10-16T00:19:56;95061.13;;;15.52;100.00
2000;BME280;1001;48.87406500;9.59633600;2022-10-16T00:22:23;95059.78;;;15.50;100.00
2000;BME280;1001;48.87406500;9.59633600;2022-10-16T00:24:50;95056.66;;;15.53;100.00
2000;BME280;1001;48.87406500;9.59633600;2022-10-16T00:27:17;95054.00;;;15.53;100.00
2000;BME280;1001;48.87406500;9.59633600;2022-10-16T00:29:43;95050.56;;;15.52;100.00
2000;BME280;1001;48.87406500;9.59633600;2022-10-16T00:32:10;95051.13;;;15.54;100.00
2000;BME280;1001;48.87406500;9.59633600;2022-10-16T00:34:37;95055.34;;;15.55;100.00
2000;BME280;1001;48.87406500;9.59633600;2022-10-16T00:37:05;95051.66;;;15.51;100.00
2000;BME280;1001;48.87406500;9.59633600;2022-10-16T00:39:31;95056.91;;;15.46;100.00
2000;BME280;1001;48.87406500;9.59633600;2022-10-16T00:41:58;95042.88;;;15.41;100.00
2000;BME280;1001;48.87406500;9.59633600;2022-10-16T00:44:47;95046.56;;;15.35;100.00
2000;BME280;1001;48.87406500;9.59633600;2022-10-16T00:47:19;95040.47;;;15.29;100.00
2000;BME280;1001;48.87406500;9.59633600;2022-10-16T00:49:46;95040.19;;;15.21;100.00
2000;BME280;1001;48.87406500;9.59633600;2022-10-16T00:52:15;95032.53;;;15.14;100.00
2000;BME280;1001;48.87406500;9.59633600;2022-10-16T00:54:41;95042.53;;;15.07;100.00
2000;BME280;1001;48.87406500;9.59633600;2022-10-16T00:57:08;95041.97;;;15.05;100.00
2000;BME280;1001;48.87406500;9.59633600;2022-10-16T00:59:37;95048.06;;;15.11;100.00
2000;BME280;1001;48.87406500;9.59633600;2022-10-16T01:02:05;95053.34;;;15.16;100.00
2000;BME280;1001;48.87406500;9.59633600;2022-10-16T01:04:34;95056.78;;;15.16;100.00
2000;BME280;1001;48.87406500;9.59633600;2022-10-16T01:07:07;95061.28;;;15.26;100.00
2000;BME280;1001;48.87406500;9.59633600;2022-10-16T01:09:45;95059.22;;;15.33;100.00
2000;BME280;1001;48.87406500;9.59633600;2022-10-16T01:12:16;95062.09;;;15.31;100.00
2000;BME280;1001;48.87406500;9.59633600;2022-10-16T01:14:48;95062.34;;;15.30;100.00
2000;BME280;1001;48.87406500;9.59633600;2022-10-16T01:17:20;95053.63;;;15.24;100.00
2000;BME280;1001;48.87406500;9.59633600;2022-10-16T01:20:07;95063.09;;;15.20;100.00
2000;BME280;1001;48.87406500;9.59633600;2022-10-16T01:22:41;95067.03;;;15.13;100.00
2000;BME280;1001;48.87406500;9.59633600;2022-10-16T01:25:16;95071.50;;;15.12;100.00
2000;BME280;1001;48.87406500;9.59633600;2022-10-16T01:27:47;95069.41;;;15.09;100.00
2000;BME280;1001;48.87406500;9.59633600;2022-10-16T01:30:17;95068.34;;;15.15;100.00
2000;BME280;1001;48.87406500;9.59633600;2022-10-16T01:32:50;95067.34;;;15.21;100.00
2000;BME280;1001;48.87406500;9.59633600;2022-10-16T01:35:21;95063.94;;;15.26;100.00
2000;BME280;1001;48.87406500;9.59633600;2022-10-16T01:37:51;95064.97;;;15.25;100.00
2000;BME280;1001;48.87406500;9.59633600;2022-10-16T01:40:20;95069.47;;;15.29;100.00
2000;BME280;1001;48.87406500;9.59633600;2022-10-16T01:42:52;95061.56;;;15.29;100.00
2000;BME280;1001;48.87406500;9.59633600;2022-10-16T01:45:20;95064.22;;;15.34;100.00
2000;BME280;1001;48.87406500;9.59633600;2022-10-16T01:47:48;95057.91;;;15.35;100.00
2000;BME280;1001;48.87406500;9.59633600;2022-10-16T01:50:18;95068.41;;;15.30;100.00
2000;BME280;1001;48.87406500;9.59633600;2022-10-16T01:52:48;95070.00;;;15.31;100.00
2000;BME280;1001;48.87406500;9.59633600;2022-10-16T01:55:21;95073.44;;;15.37;100.00
2000;BME280;1001;48.87406500;9.59633600;2022-10-16T01:57:51;95073.72;;;15.35;100.00
2000;BME280;1001;48.87406500;9.59633600;2022-10-16T02:00:20;95070.75;;;15.27;100.00
2000;BME280;1001;48.87406500;9.59633600;2022-10-16T02:02:50;95060.97;;;15.17;100.00
2000;BME280;1001;48.87406500;9.59633600;2022-10-16T02:05:23;95063.84;;;15.11;100.00
2000;BME280;1001;48.87406500;9.59633600;2022-10-16T02:07:51;95058.84;;;15.04;100.00
2000;BME280;1001;48.87406500;9.59633600;2022-10-16T02:10:18;95061.16;;;14.95;100.00
2000;BME280;1001;48.87406500;9.59633600;2022-10-16T02:12:50;95062.44;;;14.88;100.00
2000;BME280;1001;48.87406500;9.59633600;2022-10-16T02:15:17;95059.50;;;14.79;100.00
2000;BME280;1001;48.87406500;9.59633600;2022-10-16T02:17:44;95051.84;;;14.78;100.00
2000;BME280;1001;48.87406500;9.59633600;2022-10-16T02:20:10;95055.56;;;14.82;100.00
2000;BME280;1001;48.87406500;9.59633600;2022-10-16T02:22:39;95053.22;;;14.85;100.00
2000;BME280;1001;48.87406500;9.59633600;2022-10-16T02:25:10;95056.63;;;14.86;100.00
2000;BME280;1001;48.87406500;9.59633600;2022-10-16T02:27:42;95056.66;;;14.91;100.00
2000;BME280;1001;48.87406500;9.59633600;2022-10-16T02:30:20;95053.25;;;14.95;100.00
2000;BME280;1001;48.87406500;9.59633600;2022-10-16T02:32:48;95062.50;;;15.03;100.00
2000;BME280;1001;48.87406500;9.59633600;2022-10-16T02:35:17;95056.72;;;15.06;100.00
2000;BME280;1001;48.87406500;9.59633600;2022-10-16T02:37:45;95054.09;;;15.06;100.00
2000;BME280;1001;48.87406500;9.59633600;2022-10-16T02:40:13;95063.31;;;15.04;100.00
2000;BME280;1001;48.87406500;9.59633600;2022-10-16T02:42:40;95064.38;;;15.08;100.00
2000;BME280;1001;48.87406500;9.59633600;2022-10-16T02:45:09;95063.59;;;15.12;100.00
2000;BME280;1001;48.87406500;9.59633600;2022-10-16T02:47:37;95068.88;;;15.17;100.00
2000;BME280;1001;48.87406500;9.59633600;2022-10-16T02:50:05;95072.81;;;15.15;100.00
2000;BME280;1001;48.87406500;9.59633600;2022-10-16T02:52:31;95071.50;;;15.12;100.00
2000;BME280;1001;48.87406500;9.59633600;2022-10-16T02:54:58;95070.44;;;15.13;100.00
2000;BME280;1001;48.87406500;9.59633600;2022-10-16T02:57:25;95065.69;;;15.10;100.00
2000;BME280;1001;48.87406500;9.59633600;2022-10-16T02:59:52;95061.72;;;15.08;100.00
2000;BME280;1001;48.87406500;9.59633600;2022-10-16T03:02:18;95065.94;;;15.04;100.00
2000;BME280;1001;48.87406500;9.59633600;2022-10-16T03:04:46;95060.69;;;15.09;100.00
2000;BME280;1001;48.87406500;9.59633600;2022-10-16T03:07:13;95057.78;;;15.10;100.00
2000;BME280;1001;48.87406500;9.59633600;2022-10-16T03:09:39;95062.81;;;15.12;100.00
2000;BME280;1001;48.87406500;9.59633600;2022-10-16T03:12:06;95062.81;;;15.17;100.00
2000;BME280;1001;48.87406500;9.59633600;2022-10-16T03:14:33;95057.53;;;15.17;100.00
2000;BME280;1001;48.87406500;9.59633600;2022-10-16T03:17:00;95065.22;;;15.18;100.00
2000;BME280;1001;48.87406500;9.59633600;2022-10-16T03:19:26;95063.38;;;15.19;100.00
2000;BME280;1001;48.87406500;9.59633600;2022-10-16T03:21:54;95059.41;;;15.16;100.00
2000;BME280;1001;48.87406500;9.59633600;2022-10-16T03:24:21;95058.88;;;15.14;100.00
2000;BME280;1001;48.87406500;9.59633600;2022-10-16T03:26:47;95057.81;;;15.15;100.00
2000;BME280;1001;48.87406500;9.59633600;2022-10-16T03:29:14;95060.44;;;15.15;100.00
2000;BME280;1001;48.87406500;9.59633600;2022-10-16T03:31:41;95067.81;;;15.13;100.00
2000;BME280;1001;48.87406500;9.59633600;2022-10-16T03:34:07;95061.50;;;15.09;100.00
2000;BME280;1001;48.87406500;9.59633600;2022-10-16T03:36:34;95063.31;;;15.09;100.00
2000;BME280;1001;48.87406500;9.59633600;2022-10-16T03:39:02;95073.34;;;15.12;100.00
2000;BME280;1001;48.87406500;9.59633600;2022-10-16T03:41:29;95065.44;;;15.07;100.00
2000;BME280;1001;48.87406500;9.59633600;2022-10-16T03:43:56;95069.63;;;15.08;100.00
2000;BME280;1001;48.87406500;9.59633600;2022-10-16T03:46:22;95070.94;;;15.05;100.00
2000;BME280;1001;48.87406500;9.59633600;2022-10-16T03:48:49;95064.59;;;15.01;100.00
2000;BME280;1001;48.87406500;9.59633600;2022-10-16T03:51:15;95069.84;;;14.96;100.00
2000;BME280;1001;48.87406500;9.59633600;2022-10-16T03:53:42;95066.44;;;15.00;100.00
2000;BME280;1001;48.87406500;9.59633600;2022-10-16T03:56:10;95065.66;;;15.00;100.00
2000;BME280;1001;48.87406500;9.59633600;2022-10-16T03:58:37;95065.91;;;14.98;100.00
2000;BME280;1001;48.87406500;9.59633600;2022-10-16T04:01:03;95065.91;;;14.98;100.00
2000;BME280;1001;48.87406500;9.59633600;2022-10-16T04:03:30;95068.31;;;15.00;100.00
2000;BME280;1001;48.87406500;9.59633600;2022-10-16T04:05:56;95071.94;;;14.94;100.00
2000;BME280;1001;48.87406500;9.59633600;2022-10-16T04:08:23;95069.28;;;14.89;100.00
2000;BME280;1001;48.87406500;9.59633600;2022-10-16T04:10:50;95067.97;;;14.91;100.00
2000;BME280;1001;48.87406500;9.59633600;2022-10-16T04:13:18;95068.25;;;14.90;100.00
2000;BME280;1001;48.87406500;9.59633600;2022-10-16T04:15:45;95071.41;;;14.92;100.00
2000;BME280;1001;48.87406500;9.59633600;2022-10-16T04:18:11;95070.88;;;14.90;100.00
2000;BME280;1001;48.87406500;9.59633600;2022-10-16T04:20:38;95076.13;;;14.85;100.00
2000;BME280;1001;48.87406500;9.59633600;2022-10-16T04:23:05;95075.31;;;14.84;100.00
2000;BME280;1001;48.87406500;9.59633600;2022-10-16T04:25:31;95080.06;;;14.82;100.00
2000;BME280;1001;48.87406500;9.59633600;2022-10-16T04:27:58;95084.25;;;14.78;100.00
2000;BME280;1001;48.87406500;9.59633600;2022-10-16T04:30:26;95092.38;;;14.77;100.00
2000;BME280;1001;48.87406500;9.59633600;2022-10-16T04:32:53;95089.25;;;14.80;100.00
2000;BME280;1001;48.87406500;9.59633600;2022-10-16T04:35:21;95089.78;;;14.82;100.00
2000;BME280;1001;48.87406500;9.59633600;2022-10-16T04:37:47;95096.66;;;14.83;100.00
2000;BME280;1001;48.87406500;9.59633600;2022-10-16T04:40:14;95087.66;;;14.79;100.00
2000;BME280;1001;48.87406500;9.59633600;2022-10-16T04:42:41;95094.00;;;14.83;100.00
2000;BME280;1001;48.87406500;9.59633600;2022-10-16T04:45:08;95088.75;;;14.83;100.00
2000;BME280;1001;48.87406500;9.59633600;2022-10-16T04:47:36;95087.69;;;14.84;100.00
2000;BME280;1001;48.87406500;9.59633600;2022-10-16T04:50:03;95090.84;;;14.86;100.00
2000;BME280;1001;48.87406500;9.59633600;2022-10-16T04:52:30;95086.16;;;14.88;100.00
2000;BME280;1001;48.87406500;9.59633600;2022-10-16T04:54:57;95087.72;;;14.89;100.00
2000;BME280;1001;48.87406500;9.59633600;2022-10-16T04:57:27;95095.63;;;14.94;100.00
2000;BME280;1001;48.87406500;9.59633600;2022-10-16T04:59:53;95105.66;;;14.92;100.00
2000;BME280;1001;48.87406500;9.59633600;2022-10-16T05:02:20;95104.59;;;14.98;100.00
2000;BME280;1001;48.87406500;9.59633600;2022-10-16T05:04:48;95095.94;;;15.02;100.00
2000;BME280;1001;48.87406500;9.59633600;2022-10-16T05:07:15;95104.94;;;15.07;100.00
2000;BME280;1001;48.87406500;9.59633600;2022-10-16T05:09:41;95105.19;;;15.10;100.00
2000;BME280;1001;48.87406500;9.59633600;2022-10-16T05:12:08;95108.13;;;15.14;100.00
2000;BME280;1001;48.87406500;9.59633600;2022-10-16T05:14:35;95104.97;;;15.17;100.00
2000;BME280;1001;48.87406500;9.59633600;2022-10-16T05:17:01;95108.16;;;15.19;100.00
2000;BME280;1001;48.87406500;9.59633600;2022-10-16T05:19:28;95113.44;;;15.19;100.00
2000;BME280;1001;48.87406500;9.59633600;2022-10-16T05:21:56;95122.88;;;15.15;100.00
2000;BME280;1001;48.87406500;9.59633600;2022-10-16T05:24:22;95119.47;;;15.14;100.00
2000;BME280;1001;48.87406500;9.59633600;2022-10-16T05:26:49;95115.00;;;15.20;100.00
2000;BME280;1001;48.87406500;9.59633600;2022-10-16T05:29:16;95121.84;;;15.21;100.00
2000;BME280;1001;48.87406500;9.59633600;2022-10-16T05:31:42;95122.38;;;15.23;100.00
2000;BME280;1001;48.87406500;9.59633600;2022-10-16T05:34:09;95116.31;;;15.22;100.00
2000;BME280;1001;48.87406500;9.59633600;2022-10-16T05:36:36;95116.84;;;15.24;100.00
2000;BME280;1001;48.87406500;9.59633600;2022-10-16T05:39:04;95114.75;;;15.26;100.00
2000;BME280;1001;48.87406500;9.59633600;2022-10-16T05:41:31;95119.25;;;15.26;100.00
2000;BME280;1001;48.87406500;9.59633600;2022-10-16T05:43:57;95120.84;;;15.32;100.00
2000;BME280;1001;48.87406500;9.59633600;2022-10-16T05:46:24;95128.47;;;15.33;100.00
2000;BME280;1001;48.87406500;9.59633600;2022-10-16T05:48:51;95122.66;;;15.26;100.00
2000;BME280;1001;48.87406500;9.59633600;2022-10-16T05:51:18;95124.78;;;15.29;100.00
2000;BME280;1001;48.87406500;9.59633600;2022-10-16T05:53:45;95133.50;;;15.35;100.00
2000;BME280;1001;48.87406500;9.59633600;2022-10-16T05:56:13;95132.44;;;15.36;100.00
2000;BME280;1001;48.87406500;9.59633600;2022-10-16T05:58:40;95126.94;;;15.37;100.00
2000;BME280;1001;48.87406500;9.59633600;2022-10-16T06:01:11;95136.41;;;15.38;100.00
2000;BME280;1001;48.87406500;9.59633600;2022-10-16T06:03:38;95136.16;;;15.35;100.00
2000;BME280;1001;48.87406500;9.59633600;2022-10-16T06:06:09;95135.63;;;15.33;100.00
2000;BME280;1001;48.87406500;9.59633600;2022-10-16T06:08:36;95137.19;;;15.34;100.00
2000;BME280;1001;48.87406500;9.59633600;2022-10-16T06:11:04;95141.13;;;15.31;100.00
2000;BME280;1001;48.87406500;9.59633600;2022-10-16T06:13:33;95145.06;;;15.29;100.00
2000;BME280;1001;48.87406500;9.59633600;2022-10-16T06:16:00;95137.47;;;15.37;100.00
2000;BME280;1001;48.87406500;9.59633600;2022-10-16T06:18:28;95147.47;;;15.40;100.00
2000;BME280;1001;48.87406500;9.59633600;2022-10-16T06:20:56;95157.78;;;15.42;100.00
2000;BME280;1001;48.87406500;9.59633600;2022-10-16T06:23:23;95155.44;;;15.45;100.00
2000;BME280;1001;48.87406500;9.59633600;2022-10-16T06:25:50;95158.38;;;15.49;100.00
2000;BME280;1001;48.87406500;9.59633600;2022-10-16T06:28:16;95166.53;;;15.52;100.00
2000;BME280;1001;48.87406500;9.59633600;2022-10-16T06:30:44;95162.38;;;15.56;100.00
2000;BME280;1001;48.87406500;9.59633600;2022-10-16T06:33:11;95174.47;;;15.57;100.00
2000;BME280;1001;48.87406500;9.59633600;2022-10-16T06:35:37;95172.38;;;15.59;100.00
2000;BME280;1001;48.87406500;9.59633600;2022-10-16T06:38:04;95180.31;;;15.64;100.00
2000;BME280;1001;48.87406500;9.59633600;2022-10-16T06:40:31;95182.97;;;15.75;100.00
2000;BME280;1001;48.87406500;9.59633600;2022-10-16T06:42:57;95178.00;;;15.78;100.00
2000;BME280;1001;48.87406500;9.59633600;2022-10-16T06:45:24;95183.81;;;15.80;100.00
2000;BME280;1001;48.87406500;9.59633600;2022-10-16T06:47:52;95181.75;;;15.92;100.00
2000;BME280;1001;48.87406500;9.59633600;2022-10-16T06:50:18;95180.97;;;15.97;100.00
2000;BME280;1001;48.87406500;9.59633600;2022-10-16T06:52:45;95182.03;;;16.06;100.00
2000;BME280;1001;48.87406500;9.59633600;2022-10-16T06:55:12;95183.63;;;16.17;100.00
2000;BME280;1001;48.87406500;9.59633600;2022-10-16T06:57:39;95176.53;;;16.22;100.00
2000;BME280;1001;48.87406500;9.59633600;2022-10-16T07:00:07;95186.31;;;16.37;100.00
2000;BME280;1001;48.87406500;9.59633600;2022-10-16T07:02:34;95187.09;;;16.43;100.00
2000;BME280;1001;48.87406500;9.59633600;2022-10-16T07:05:02;95197.97;;;16.51;100.00
2000;BME280;1001;48.87406500;9.59633600;2022-10-16T07:07:29;95210.13;;;16.62;100.00
2000;BME280;1001;48.87406500;9.59633600;2022-10-16T07:09:56;95214.88;;;16.60;100.00
2000;BME280;1001;48.87406500;9.59633600;2022-10-16T07:12:22;95213.78;;;16.61;100.00
2000;BME280;1001;48.87406500;9.59633600;2022-10-16T07:14:49;95222.81;;;16.70;100.00
2000;BME280;1001;48.87406500;9.59633600;2022-10-16T07:17:17;95224.38;;;16.71;100.00
2000;BME280;1001;48.87406500;9.59633600;2022-10-16T07:19:44;95232.56;;;16.70;100.00
2000;BME280;1001;48.87406500;9.59633600;2022-10-16T07:22:12;95228.06;;;16.75;100.00
2000;BME280;1001;48.87406500;9.59633600;2022-10-16T07:24:39;95228.88;;;16.81;100.00
2000;BME280;1001;48.87406500;9.59633600;2022-10-16T07:27:05;95229.91;;;16.85;100.00
2000;BME280;1001;48.87406500;9.59633600;2022-10-16T07:29:32;95230.97;;;16.99;100.00
2000;BME280;1001;48.87406500;9.59633600;2022-10-16T07:31:59;95244.44;;;17.23;100.00
2000;BME280;1001;48.87406500;9.59633600;2022-10-16T07:34:25;95237.53;;;17.37;99.91
2000;BME280;1001;48.87406500;9.59633600;2022-10-16T07:36:52;95240.97;;;17.47;99.51
2000;BME280;1001;48.87406500;9.59633600;2022-10-16T07:39:20;95239.38;;;17.56;97.94
2000;BME280;1001;48.87406500;9.59633600;2022-10-16T07:41:47;95249.16;;;17.61;96.89
2000;BME280;1001;48.87406500;9.59633600;2022-10-16T07:44:15;95253.31;;;17.77;96.78
2000;BME280;1001;48.87406500;9.59633600;2022-10-16T07:46:42;95261.53;;;17.81;98.16
2000;BME280;1001;48.87406500;9.59633600;2022-10-16T07:49:08;95262.88;;;17.73;99.79
2000;BME280;1001;48.87406500;9.59633600;2022-10-16T07:51:35;95263.13;;;17.82;100.00
2000;BME280;1001;48.87406500;9.59633600;2022-10-16T07:54:03;95271.09;;;17.66;99.38
2000;BME280;1001;48.87406500;9.59633600;2022-10-16T07:56:31;95278.78;;;17.58;100.00
2000;BME280;1001;48.87406500;9.59633600;2022-10-16T07:58:58;95286.19;;;17.41;100.00
2000;BME280;1001;48.87406500;9.59633600;2022-10-16T08:01:25;95290.94;;;17.24;100.00
2000;BME280;1001;48.87406500;9.59633600;2022-10-16T08:03:52;95281.19;;;17.14;100.00
2000;BME280;1001;48.87406500;9.59633600;2022-10-16T08:06:20;95285.13;;;17.12;100.00
2000;BME280;1001;48.87406500;9.59633600;2022-10-16T08:08:48;95285.66;;;17.14;100.00
2000;BME280;1001;48.87406500;9.59633600;2022-10-16T08:11:15;95292.78;;;17.18;100.00
2000;BME280;1001;48.87406500;9.59633600;2022-10-16T08:13:43;95290.16;;;17.13;100.00
2000;BME280;1001;48.87406500;9.59633600;2022-10-16T08:16:09;95290.94;;;17.29;100.00
2000;BME280;1001;48.87406500;9.59633600;2022-10-16T08:18:37;95284.59;;;17.35;100.00
2000;BME280;1001;48.87406500;9.59633600;2022-10-16T08:21:05;95285.63;;;17.49;99.75
2000;BME280;1001;48.87406500;9.59633600;2022-10-16T08:23:32;95291.47;;;17.61;99.21
2000;BME280;1001;48.87406500;9.59633600;2022-10-16T08:26:03;95286.16;;;17.76;99.26
2000;BME280;1001;48.87406500;9.59633600;2022-10-16T08:28:30;95291.72;;;17.70;98.53
2000;BME280;1001;48.87406500;9.59633600;2022-10-16T08:31:06;95290.41;;;17.67;97.59
2000;BME280;1001;48.87406500;9.59633600;2022-10-16T08:33:33;95298.28;;;17.77;97.62
2000;BME280;1001;48.87406500;9.59633600;2022-10-16T08:36:00;95298.56;;;17.76;97.60
2000;BME280;1001;48.87406500;9.59633600;2022-10-16T08:38:27;95293.56;;;17.74;96.31
2000;BME280;1001;48.87406500;9.59633600;2022-10-16T08:40:56;95300.94;;;17.82;96.25
2000;BME280;1001;48.87406500;9.59633600;2022-10-16T08:43:39;95291.97;;;17.78;95.88
2000;BME280;1001;48.87406500;9.59633600;2022-10-16T08:46:34;95300.19;;;17.77;95.72
2000;BME280;1001;48.87406500;9.59633600;2022-10-16T08:49:10;95303.31;;;17.89;94.97
2000;BME280;1001;48.87406500;9.59633600;2022-10-16T08:51:38;95319.97;;;17.94;95.42
2000;BME280;1001;48.87406500;9.59633600;2022-10-16T08:54:06;95314.72;;;17.79;94.04
2000;BME280;1001;48.87406500;9.59633600;2022-10-16T08:56:35;95323.44;;;17.75;94.76
2000;BME280;1001;48.87406500;9.59633600;2022-10-16T08:59:06;95325.03;;;17.81;97.10
2000;BME280;1001;48.87406500;9.59633600;2022-10-16T09:01:40;95325.25;;;17.84;95.53
2000;BME280;1001;48.87406500;9.59633600;2022-10-16T09:04:43;95336.59;;;18.10;95.21
2000;BME280;1001;48.87406500;9.59633600;2022-10-16T09:07:20;95333.16;;;18.09;93.20
2000;BME280;1001;48.87406500;9.59633600;2022-10-16T09:10:01;95337.53;;;18.44;94.01
2000;BME280;1001;48.87406500;9.59633600;2022-10-16T09:12:37;95335.94;;;18.48;92.21
2000;BME280;1001;48.87406500;9.59633600;2022-10-16T09:15:15;95336.19;;;18.52;91.96
2000;BME280;1001;48.87406500;9.59633600;2022-10-16T09:17:52;95331.69;;;18.52;92.51
2000;BME280;1001;48.87406500;9.59633600;2022-10-16T09:20:26;95334.03;;;18.59;93.31
2000;BME280;1001;48.87406500;9.59633600;2022-10-16T09:23:07;95338.13;;;18.31;93.42
2000;BME280;1001;48.87406500;9.59633600;2022-10-16T09:25:38;95338.84;;;18.42;93.42
2000;BME280;1001;48.87406500;9.59633600;2022-10-16T09:28:08;95350.75;;;18.44;93.33
2000;BME280;1001;48.87406500;9.59633600;2022-10-16T09:30:36;95347.06;;;18.45;94.46
2000;BME280;1001;48.87406500;9.59633600;2022-10-16T09:33:05;95349.94;;;18.54;93.10
2000;BME280;1001;48.87406500;9.59633600;2022-10-16T09:35:36;95346.28;;;18.50;93.09
2000;BME280;1001;48.87406500;9.59633600;2022-10-16T09:38:04;95349.47;;;18.47;91.04
2000;BME280;1001;48.87406500;9.59633600;2022-10-16T09:40:33;95350.16;;;18.62;91.67
2000;BME280;1001;48.87406500;9.59633600;2022-10-16T09:43:16;95344.34;;;18.65;93.85
2000;BME280;1001;48.87406500;9.59633600;2022-10-16T09:45:54;95355.25;;;18.54;93.16
2000;BME280;1001;48.87406500;9.59633600;2022-10-16T09:48:22;95358.34;;;18.71;94.64
2000;BME280;1001;48.87406500;9.59633600;2022-10-16T09:50:58;95365.28;;;18.62;94.93
2000;BME280;1001;48.87406500;9.59633600;2022-10-16T09:53:36;95359.78;;;18.38;93.02
2000;BME280;1001;48.87406500;9.59633600;2022-10-16T09:56:04;95365.91;;;18.33;90.98
2000;BME280;1001;48.87406500;9.59633600;2022-10-16T09:58:32;95369.63;;;18.27;91.23
2000;BME280;1001;48.87406500;9.59633600;2022-10-16T10:01:00;95368.28;;;18.30;89.63
2000;BME280;1001;48.87406500;9.59633600;2022-10-16T10:03:38;95366.44;;;18.35;89.55
2000;BME280;1001;48.87406500;9.59633600;2022-10-16T10:06:16;95375.72;;;18.23;90.62
2000;BME280;1001;48.87406500;9.59633600;2022-10-16T10:08:57;95378.88;;;18.25;90.87
2000;BME280;1001;48.87406500;9.59633600;2022-10-16T10:11:42;95377.78;;;18.51;93.36
2000;BME280;1001;48.87406500;9.59633600;2022-10-16T10:14:19;95384.81;;;18.81;89.39
2000;BME280;1001;48.87406500;9.59633600;2022-10-16T10:16:46;95382.22;;;19.10;87.45
2000;BME280;1001;48.87406500;9.59633600;2022-10-16T10:19:16;95382.44;;;19.23;87.11
2000;BME280;1001;48.87406500;9.59633600;2022-10-16T10:21:43;95381.22;;;19.49;87.85
2000;BME280;1001;48.87406500;9.59633600;2022-10-16T10:24:11;95382.75;;;19.55;87.10
2000;BME280;1001;48.87406500;9.59633600;2022-10-16T10:26:44;95384.56;;;19.60;87.43
2000;BME280;1001;48.87406500;9.59633600;2022-10-16T10:29:19;95382.69;;;19.94;87.19
2000;BME280;1001;48.87406500;9.59633600;2022-10-16T10:31:56;95378.00;;;20.39;84.00
2000;BME280;1001;48.87406500;9.59633600;2022-10-16T10:34:40;95386.97;;;20.66;84.24
2000;BME280;1001;48.87406500;9.59633600;2022-10-16T10:37:24;95390.22;;;20.63;80.70
2000;BME280;1001;48.87406500;9.59633600;2022-10-16T10:39:58;95391.97;;;20.91;79.62
2000;BME280;1001;48.87406500;9.59633600;2022-10-16T10:42:31;95393.25;;;21.18;76.08
2000;BME280;1001;48.87406500;9.59633600;2022-10-16T10:45:14;95400.69;;;21.53;78.78
2000;BME280;1001;48.87406500;9.59633600;2022-10-16T10:47:48;95402.13;;;21.64;80.24
2000;BME280;1001;48.87406500;9.59633600;2022-10-16T10:50:23;95400.84;;;21.94;76.90
2000;BME280;1001;48.87406500;9.59633600;2022-10-16T10:52:58;95414.81;;;22.31;77.94
2000;BME280;1001;48.87406500;9.59633600;2022-10-16T10:55:33;95410.38;;;21.81;71.98
2000;BME280;1001;48.87406500;9.59633600;2022-10-16T11:01:08;95401.78;;;21.33;75.10
2000;BME280;1001;48.87406500;9.59633600;2022-10-16T11:03:46;95412.09;;;21.53;76.66
2000;BME280;1001;48.87406500;9.59633600;2022-10-16T11:06:22;95410.84;;;21.83;76.66
2000;BME280;1001;48.87406500;9.59633600;2022-10-16T11:08:53;95408.16;;;21.51;76.15
2000;BME280;1001;48.87406500;9.59633600;2022-10-16T11:11:25;95406.09;;;21.48;73.52
2000;BME280;1001;48.87406500;9.59633600;2022-10-16T11:13:59;95414.16;;;21.94;76.01
2000;BME280;1001;48.87406500;9.59633600;2022-10-16T11:16:28;95402.16;;;21.78;73.99
2000;BME280;1001;48.87406500;9.59633600;2022-10-16T11:18:59;95412.38;;;21.89;73.18
2000;BME280;1001;48.87406500;9.59633600;2022-10-16T11:21:41;95410.31;;;21.86;73.38
2000;BME280;1001;48.87406500;9.59633600;2022-10-16T11:24:17;95417.75;;;22.03;72.18
2000;BME280;1001;48.87406500;9.59633600;2022-10-16T11:26:47;95403.75;;;22.11;74.46
2000;BME280;1001;48.87406500;9.59633600;2022-10-16T11:29:20;95408.75;;;21.99;74.47
2000;BME280;1001;48.87406500;9.59633600;2022-10-16T11:31:52;95405.50;;;22.02;74.04
2000;BME280;1001;48.87406500;9.59633600;2022-10-16T11:34:26;95400.78;;;22.12;72.84
2000;BME280;1001;48.87406500;9.59633600;2022-10-16T11:36:59;95401.72;;;21.89;73.60
2000;BME280;1001;48.87406500;9.59633600;2022-10-16T11:39:29;95400.59;;;21.77;73.79
2000;BME280;1001;48.87406500;9.59633600;2022-10-16T11:42:01;95397.28;;;21.66;72.49
2000;BME280;1001;48.87406500;9.59633600;2022-10-16T11:44:38;95392.19;;;21.69;73.14
2000;BME280;1001;48.87406500;9.59633600;2022-10-16T11:47:16;95394.84;;;21.88;73.92
2000;BME280;1001;48.87406500;9.59633600;2022-10-16T11:49:47;95388.03;;;21.77;72.87
2000;BME280;1001;48.87406500;9.59633600;2022-10-16T11:52:22;95387.22;;;21.63;75.57